Time;durP1;ratioP1;P1;durP2;ratioP2;P2;SDS_P1;SDS_P2;PMS_P1;PMS_P2;Temp;Humidity;BMP_temperature;BMP_pressure;BME280_temperature;BME280_humidity;BME280_pressure;Samples;Min_cycle;Max_cycle;Signal;HPM_P1;HPM_P2
2024/01/24 00:00:12;;;;;;;5.23;2.73;;;;;;;-145.18;100.00;47066.72;4994325;28;20406;-68
2024/01/24 00:02:38;;;;;;;6.27;2.33;;;;;;;-145.18;100.00;47066.72;4994266;28;20026;-68
2024/01/24 00:05:04;;;;;;;5.30;2.50;;;;;;;-145.18;100.00;47060.84;4994036;28;20406;-68
2024/01/24 00:07:31;;;;;;;3.97;2.43;;;;;;;-145.18;100.00;47060.84;4993982;28;20034;-68
2024/01/24 00:09:56;;;;;;;4.47;2.60;;;;;;;-145.18;100.00;47060.84;4976486;28;20415;-67
2024/01/24 00:12:22;;;;;;;4.33;2.50;;;;;;;-145.18;100.00;47062.81;4994040;28;20031;-68
2024/01/24 00:14:47;;;;;;;5.00;2.40;;;;;;;-145.18;100.00;47056.94;4976294;28;20031;-68
2024/01/24 00:17:13;;;;;;;2.97;2.37;;;;;;;-145.18;100.00;47058.91;4976685;28;20061;-68
2024/01/24 00:19:38;;;;;;;2.77;2.33;;;;;;;-145.18;100.00;47055.00;4976175;28;20022;-68
2024/01/24 00:22:03;;;;;;;5.40;2.53;;;;;;;-145.18;100.00;47055.00;4994138;28;20062;-68
2024/01/24 00:24:29;;;;;;;3.00;2.40;;;;;;;-145.18;100.00;47055.00;4976486;28;20367;-68
2024/01/24 00:26:54;;;;;;;4.23;2.73;;;;;;;-145.18;100.00;47056.94;4994000;28;20041;-68
2024/01/24 00:29:20;;;;;;;3.90;2.40;;;;;;;-145.18;100.00;47058.91;4993685;28;20061;-68
2024/01/24 00:31:46;;;;;;;6.83;2.80;;;;;;;-145.18;100.00;47062.81;4993451;28;20046;-67
2024/01/24 00:34:12;;;;;;;3.43;2.67;;;;;;;-145.18;100.00;47060.84;4993855;28;20042;-67
2024/01/24 00:36:37;;;;;;;4.60;3.37;;;;;;;-145.18;100.00;47066.72;4993964;28;20038;-67
2024/01/24 00:39:03;;;;;;;4.07;3.00;;;;;;;-145.18;100.00;47066.72;4993793;28;20037;-68
2024/01/24 00:41:29;;;;;;;5.37;3.40;;;;;;;-145.18;100.00;47070.63;4993887;28;20045;-68
2024/01/24 00:43:54;;;;;;;3.60;3.30;;;;;;;-145.18;100.00;47066.72;4993252;28;20062;-67
2024/01/24 00:46:19;;;;;;;4.57;3.40;;;;;;;-145.18;100.00;47070.63;4976316;28;20045;-67
2024/01/24 00:48:45;;;;;;;3.73;3.43;;;;;;;-145.18;100.00;47072.56;4993624;28;20093;-68
2024/01/24 00:51:11;;;;;;;6.90;3.67;;;;;;;-145.18;100.00;47074.53;4993580;28;20030;-68
2024/01/24 00:53:37;;;;;;;4.17;3.57;;;;;;;-145.18;100.00;47082.34;4993123;28;20071;-67
2024/01/24 00:56:03;;;;;;;4.33;3.63;;;;;;;-145.18;100.00;47080.38;4993626;28;20031;-68
2024/01/24 00:58:29;;;;;;;3.30;3.00;;;;;;;-145.18;100.00;47090.16;4993197;28;20030;-68
2024/01/24 01:00:55;;;;;;;5.00;3.30;;;;;;;-145.18;100.00;47088.19;4993330;28;20038;-68
2024/01/24 01:03:20;;;;;;;3.63;3.30;;;;;;;-145.18;100.00;47097.97;4992869;28;20548;-68
2024/01/24 01:05:46;;;;;;;4.37;3.00;;;;;;;-145.18;100.00;47107.72;4991960;28;20077;-68
2024/01/24 01:08:11;;;;;;;8.43;3.37;;;;;;;-145.18;100.00;47111.66;4975355;28;20038;-68
2024/01/24 01:10:37;;;;;;;4.53;3.43;;;;;;;-145.18;100.00;47113.59;4959564;28;20041;-68
2024/01/24 01:13:03;;;;;;;3.90;3.60;;;;;;;-145.18;100.00;47117.50;4992849;28;20411;-68
2024/01/24 01:15:28;;;;;;;3.40;3.03;;;;;;;-145.18;100.00;47125.31;4993234;28;20037;-68
2024/01/24 01:17:54;;;;;;;4.57;3.83;;;;;;;-145.18;100.00;47133.13;4991743;28;20033;-69
2024/01/24 01:20:19;;;;;;;3.90;3.60;;;;;;;-145.18;100.00;47131.19;4993350;28;20031;-70
2024/01/24 01:22:46;;;;;;;4.40;3.40;;;;;;;-145.18;100.00;47137.03;4992984;28;20491;-70
2024/01/24 01:25:11;;;;;;;5.10;3.40;;;;;;;-145.18;100.00;47137.03;4992473;28;20036;-70
2024/01/24 01:27:36;;;;;;;3.63;3.23;;;;;;;-145.18;100.00;47140.94;4992930;28;20042;-70
2024/01/24 01:30:02;;;;;;;5.03;3.10;;;;;;;-145.18;100.00;47146.81;4992775;28;20066;-69
2024/01/24 01:32:27;;;;;;;3.30;2.57;;;;;;;-145.18;100.00;47152.66;4992598;28;20482;-69
2024/01/24 01:34:54;;;;;;;2.40;2.20;;;;;;;-145.18;100.00;47152.66;4991097;28;20046;-70
2024/01/24 01:37:21;;;;;;;3.77;2.53;;;;;;;-145.18;100.00;47160.47;4992381;28;20475;-69
2024/01/24 01:39:46;;;;;;;3.73;2.10;;;;;;;-145.18;100.00;47164.38;4992685;28;20060;-69
2024/01/24 01:42:12;;;;;;;2.77;1.93;;;;;;;-145.18;100.00;47166.34;4992437;28;20538;-69
2024/01/24 01:44:44;;;;;;;2.33;1.77;;;;;;;-145.18;100.00;47172.19;4992804;28;20085;-70
2024/01/24 01:47:10;;;;;;;3.63;1.80;;;;;;;-145.18;100.00;47170.25;4992558;28;20030;-69
2024/01/24 01:49:36;;;;;;;4.37;1.57;;;;;;;-145.18;100.00;47176.09;4992737;28;20121;-70
2024/01/24 01:52:02;;;;;;;1.90;1.70;;;;;;;-145.18;100.00;47176.09;4991002;28;20109;-69
2024/01/24 01:54:28;;;;;;;2.87;1.30;;;;;;;-145.18;100.00;47183.94;4991232;28;20038;-69
2024/01/24 01:56:53;;;;;;;2.87;1.73;;;;;;;-145.18;100.00;47181.97;4992430;28;20039;-69
2024/01/24 01:59:19;;;;;;;1.40;1.30;;;;;;;-145.18;100.00;47185.88;4990976;28;20125;-70
2024/01/24 02:01:45;;;;;;;4.03;1.10;;;;;;;-145.18;100.00;47187.84;4992253;28;20482;-68
2024/01/24 02:04:11;;;;;;;3.53;1.33;;;;;;;-145.18;100.00;47189.78;4975009;28;20030;-69
2024/01/24 02:06:37;;;;;;;3.93;1.63;;;;;;;-145.18;100.00;47191.75;4974819;28;20081;-69
2024/01/24 02:09:02;;;;;;;2.50;1.20;;;;;;;-145.18;100.00;47193.69;4992126;28;20042;-68
2024/01/24 02:11:28;;;;;;;2.43;1.80;;;;;;;-145.18;100.00;47195.66;4974556;28;20057;-68
2024/01/24 02:13:59;;;;;;;2.73;1.37;;;;;;;-145.18;100.00;47197.59;4992388;28;20053;-68
2024/01/24 02:16:25;;;;;;;3.27;1.53;;;;;;;-145.18;100.00;47191.75;4975043;28;20034;-68
2024/01/24 02:18:52;;;;;;;3.23;2.13;;;;;;;-145.18;100.00;47191.75;4975015;28;20031;-67
2024/01/24 02:21:17;;;;;;;4.00;2.30;;;;;;;-145.18;100.00;47189.78;4991697;28;20029;-68
2024/01/24 02:23:43;;;;;;;4.20;2.40;;;;;;;-145.18;100.00;47189.78;4991177;28;20037;-67
2024/01/24 02:26:10;;;;;;;3.80;2.00;;;;;;;-145.18;100.00;47187.84;4992218;28;20054;-68
2024/01/24 02:28:35;;;;;;;3.87;2.37;;;;;;;-145.18;100.00;47181.97;4992052;28;20061;-68
2024/01/24 02:31:01;;;;;;;4.73;1.80;;;;;;;-145.18;100.00;47174.16;4991764;28;20085;-67
2024/01/24 02:33:26;;;;;;;3.63;1.80;;;;;;;-145.18;100.00;47174.16;4992502;28;20044;-68
2024/01/24 02:35:51;;;;;;;6.13;1.97;;;;;;;-145.18;100.00;47166.34;4992040;28;20490;-67
2024/01/24 02:38:17;;;;;;;3.07;1.43;;;;;;;-145.18;100.00;47164.38;4995419;28;20044;-67
2024/01/24 02:40:42;;;;;;;4.27;1.70;;;;;;;-145.18;100.00;47156.56;4978176;28;20449;-67
2024/01/24 02:43:08;;;;;;;3.60;1.90;;;;;;;-145.18;100.00;47152.66;4996015;28;20041;-67
2024/01/24 02:45:33;;;;;;;4.37;1.60;;;;;;;-145.18;100.00;47148.75;4996055;28;20042;-68
2024/01/24 02:47:59;;;;;;;3.77;1.50;;;;;;;-145.18;100.00;47142.91;4995735;28;20553;-67
2024/01/24 02:50:24;;;;;;;4.37;1.80;;;;;;;-145.18;100.00;47137.03;4996229;28;20036;-73
2024/01/24 02:52:49;;;;;;;4.47;1.90;;;;;;;-145.18;100.00;47133.13;4996032;28;20040;-74
2024/01/24 02:55:18;;;;;;;6.37;1.30;;;;;;;-145.18;100.00;47119.47;4995787;28;20474;-73
2024/01/24 02:57:44;;;;;;;4.57;1.13;;;;;;;-145.18;100.00;47113.59;4995557;28;20121;-73
2024/01/24 03:00:10;;;;;;;5.93;1.00;;;;;;;-145.18;100.00;47099.91;4995784;28;20033;-73
2024/01/24 03:02:35;;;;;;;2.77;1.60;;;;;;;-145.18;100.00;47090.16;4971170;28;20042;-73
2024/01/24 03:05:01;;;;;;;10.30;0.97;;;;;;;-145.18;100.00;47080.38;4977659;28;20046;-74
2024/01/24 03:07:27;;;;;;;5.17;1.00;;;;;;;-145.18;100.00;47066.72;4995581;28;20041;-74
2024/01/24 03:09:53;;;;;;;5.33;1.30;;;;;;;-145.18;100.00;47055.00;4995112;28;20058;-73
2024/01/24 03:12:19;;;;;;;5.03;1.33;;;;;;;-145.18;100.00;47047.19;4976930;28;20077;-74
2024/01/24 03:14:44;;;;;;;7.93;1.90;;;;;;;-145.18;100.00;47033.50;4995066;28;20414;-74
2024/01/24 03:17:10;;;;;;;11.70;1.50;;;;;;;-145.18;100.00;47027.63;4995354;28;20042;-73
2024/01/24 03:19:35;;;;;;;10.10;3.00;;;;;;;-145.18;100.00;47012.00;4995223;28;20030;-74
2024/01/24 03:22:00;;;;;;;14.43;2.13;;;;;;;-145.18;100.00;47006.16;4994986;28;20030;-74
2024/01/24 03:24:26;;;;;;;8.23;1.47;;;;;;;-145.18;100.00;46998.34;4967547;28;20026;-74
2024/01/24 03:26:51;;;;;;;15.20;2.00;;;;;;;-145.18;100.00;46992.47;4995004;28;20414;-74
2024/01/24 03:29:17;;;;;;;11.70;1.83;;;;;;;-145.18;100.00;46980.75;4994910;28;20068;-74
2024/01/24 03:31:45;;;;;;;11.30;2.50;;;;;;;-145.18;100.00;46974.91;4990326;28;20046;-74
2024/01/24 03:34:11;;;;;;;24.63;4.47;;;;;;;-145.18;100.00;46974.91;4994818;28;20034;-73
2024/01/24 03:36:37;;;;;;;17.13;3.33;;;;;;;-145.18;100.00;46969.03;4995143;28;20041;-74
2024/01/24 03:39:03;;;;;;;13.47;2.93;;;;;;;-145.18;100.00;46967.09;4988757;28;20038;-74
2024/01/24 03:41:29;;;;;;;15.03;3.10;;;;;;;-145.18;100.00;46959.25;4994346;28;20042;-74
2024/01/24 03:43:54;;;;;;;25.90;3.27;;;;;;;-145.18;100.00;46953.41;4994777;28;20030;-74
2024/01/24 03:46:20;;;;;;;20.40;3.60;;;;;;;-145.18;100.00;46953.41;4994585;28;20026;-74
2024/01/24 03:48:46;;;;;;;18.33;4.20;;;;;;;-145.18;100.00;46951.44;4992641;28;20049;-74
2024/01/24 03:51:11;;;;;;;18.33;3.37;;;;;;;-145.18;100.00;46949.50;4994860;28;20034;-74
2024/01/24 03:53:37;;;;;;;29.90;3.83;;;;;;;-145.18;100.00;46943.63;4994296;28;20121;-74
2024/01/24 03:56:03;;;;;;;21.63;3.30;;;;;;;-145.18;100.00;46941.69;4994552;28;20041;-73
2024/01/24 03:58:28;;;;;;;20.13;3.87;;;;;;;-145.18;100.00;46939.72;4994479;28;20042;-74
2024/01/24 04:00:55;;;;;;;25.30;2.90;;;;;;;-145.18;100.00;46933.88;4994493;28;20034;-74
2024/01/24 04:03:21;;;;;;;21.23;3.33;;;;;;;-145.18;100.00;46926.06;4994040;28;20042;-74
2024/01/24 04:05:47;;;;;;;26.67;3.77;;;;;;;-145.18;100.00;46931.91;4994570;28;20038;-74
2024/01/24 04:08:12;;;;;;;17.87;3.60;;;;;;;-145.18;100.00;46926.06;4994718;28;20037;-74
2024/01/24 04:10:38;;;;;;;27.20;3.93;;;;;;;-145.18;100.00;46924.09;4976420;28;20537;-74
2024/01/24 04:13:03;;;;;;;27.10;3.77;;;;;;;-145.18;100.00;46920.19;4994278;28;20034;-73
2024/01/24 04:15:29;;;;;;;24.10;4.50;;;;;;;-145.18;100.00;46916.28;4993837;28;20595;-73
2024/01/24 04:17:55;;;;;;;25.30;4.57;;;;;;;-145.18;100.00;46916.28;4994208;28;20030;-74
2024/01/24 04:20:20;;;;;;;30.17;4.10;;;;;;;-145.18;100.00;46918.25;4993942;28;20046;-74
2024/01/24 04:22:46;;;;;;;31.57;5.43;;;;;;;-145.18;100.00;46924.09;4993667;28;20041;-74
2024/01/24 04:25:12;;;;;;;32.37;4.47;;;;;;;-145.18;100.00;46918.25;4993907;28;20037;-74
2024/01/24 04:27:37;;;;;;;30.17;4.57;;;;;;;-145.18;100.00;46920.19;4993211;28;20037;-73
2024/01/24 04:30:04;;;;;;;29.20;3.97;;;;;;;-145.18;100.00;46916.28;4994044;28;20034;-74
2024/01/24 04:32:30;;;;;;;29.13;4.40;;;;;;;-145.18;100.00;46918.25;4993507;28;20077;-73
2024/01/24 04:34:56;;;;;;;36.30;5.27;;;;;;;-145.18;100.00;46910.44;4993624;28;20487;-74
2024/01/24 04:37:21;;;;;;;37.93;5.43;;;;;;;-145.18;100.00;46904.56;4992203;28;20026;-74
2024/01/24 04:39:47;;;;;;;35.70;6.30;;;;;;;-145.18;100.00;46898.72;4976549;28;20046;-74
2024/01/24 04:42:12;;;;;;;30.90;4.70;;;;;;;-145.18;100.00;46894.81;4994052;28;20839;-74
2024/01/24 04:44:38;;;;;;;34.33;4.73;;;;;;;-145.18;100.00;46890.91;4993276;28;20038;-73
2024/01/24 04:47:03;;;;;;;36.70;5.60;;;;;;;-145.18;100.00;46890.91;4993728;28;20110;-73
2024/01/24 04:49:29;;;;;;;24.00;4.37;;;;;;;-145.18;100.00;46892.84;4993842;28;20371;-73
2024/01/24 04:51:54;;;;;;;33.73;4.83;;;;;;;-145.18;100.00;46890.91;4993507;28;20414;-73
2024/01/24 04:54:19;;;;;;;27.33;5.80;;;;;;;-145.18;100.00;46892.84;4992580;28;20035;-74
2024/01/24 04:56:46;;;;;;;45.97;8.37;;;;;;;-145.18;100.00;46890.91;4976076;28;20485;-73
2024/01/24 04:59:17;;;;;;;28.67;5.10;;;;;;;-145.18;100.00;46894.81;4959540;28;20034;-73
2024/01/24 05:01:43;;;;;;;32.33;4.80;;;;;;;-145.18;100.00;46885.03;4993317;28;20394;-73
2024/01/24 05:04:09;;;;;;;33.53;6.47;;;;;;;-145.18;100.00;46888.94;4993245;28;20508;-73
2024/01/24 05:06:35;;;;;;;34.50;5.30;;;;;;;-145.18;100.00;46887.00;4980253;28;20034;-73
2024/01/24 05:09:01;;;;;;;38.23;4.43;;;;;;;-145.18;100.00;46888.94;4993234;28;20479;-73
2024/01/24 05:11:26;;;;;;;48.07;5.87;;;;;;;-145.18;100.00;46894.81;4993338;28;20037;-67
2024/01/24 05:13:53;;;;;;;37.17;5.77;;;;;;;-145.18;100.00;46890.91;4993274;28;20035;-67
2024/01/24 05:16:18;;;;;;;34.30;5.13;;;;;;;-145.18;100.00;46890.91;4992958;28;20490;-67
2024/01/24 05:18:44;;;;;;;35.73;6.47;;;;;;;-145.18;100.00;46890.91;4992898;28;20057;-68
2024/01/24 05:21:09;;;;;;;27.20;5.47;;;;;;;-145.18;100.00;46888.94;4992813;28;20125;-67
2024/01/24 05:23:34;;;;;;;39.77;5.93;;;;;;;-145.18;100.00;46890.91;4993022;28;20129;-67
2024/01/24 05:26:01;;;;;;;40.03;6.27;;;;;;;-145.18;100.00;46892.84;4992871;28;20104;-67
2024/01/24 05:28:26;;;;;;;37.97;5.87;;;;;;;-145.18;100.00;46887.00;4992724;28;20038;-67
2024/01/24 05:30:52;;;;;;;38.40;5.37;;;;;;;-145.18;100.00;46885.03;4992738;28;20050;-67
2024/01/24 05:33:17;;;;;;;39.20;5.60;;;;;;;-145.18;100.00;46888.94;4992741;28;20034;-67
2024/01/24 05:35:43;;;;;;;44.97;6.83;;;;;;;-145.18;100.00;46887.00;4992563;28;20031;-68
2024/01/24 05:38:08;;;;;;;38.43;5.77;;;;;;;-145.18;100.00;46888.94;4975024;28;20493;-67
2024/01/24 05:40:33;;;;;;;32.50;4.70;;;;;;;-145.18;100.00;46887.00;4992813;28;20030;-67
2024/01/24 05:43:01;;;;;;;50.17;8.67;;;;;;;-145.18;100.00;46888.94;4992446;28;20405;-67
2024/01/24 05:45:26;;;;;;;52.43;7.50;;;;;;;-145.18;100.00;46890.91;4980366;28;20486;-67
2024/01/24 05:47:52;;;;;;;39.03;5.87;;;;;;;-145.18;100.00;46894.81;4990991;28;20112;-67
2024/01/24 05:50:17;;;;;;;47.20;5.47;;;;;;;-145.18;100.00;46894.81;4991220;28;20031;-68
2024/01/24 05:52:44;;;;;;;37.40;5.93;;;;;;;-145.18;100.00;46898.72;4992499;28;20113;-67
2024/01/24 05:55:10;;;;;;;42.87;5.83;;;;;;;-145.18;100.00;46902.63;4974570;28;20081;-68
2024/01/24 05:57:39;;;;;;;41.30;7.60;;;;;;;-145.18;100.00;46904.56;4992305;28;20409;-67
2024/01/24 06:00:08;;;;;;;56.77;6.50;;;;;;;-145.18;100.00;46904.56;4992419;28;20513;-67
2024/01/24 06:02:35;;;;;;;42.27;8.20;;;;;;;-145.18;100.00;46900.66;4992181;28;20041;-67
2024/01/24 06:05:00;;;;;;;32.30;7.23;;;;;;;-145.18;100.00;46892.84;4979009;28;20042;-68
2024/01/24 06:07:26;;;;;;;43.87;6.80;;;;;;;-145.18;100.00;46890.91;4992325;28;20125;-68
2024/01/24 06:09:51;;;;;;;51.43;8.10;;;;;;;-145.18;100.00;46888.94;4992113;28;20100;-68
2024/01/24 06:12:16;;;;;;;42.30;6.53;;;;;;;-145.18;100.00;46887.00;4991825;28;20109;-68
2024/01/24 06:14:42;;;;;;;45.57;8.10;;;;;;;-145.18;100.00;46879.19;4990824;28;20038;-68
2024/01/24 06:17:07;;;;;;;49.40;7.63;;;;;;;-145.18;100.00;46879.19;4985135;28;20470;-68
2024/01/24 06:19:32;;;;;;;50.80;8.00;;;;;;;-145.18;100.00;46875.28;4972476;28;20049;-68
2024/01/24 06:21:58;;;;;;;49.57;7.60;;;;;;;-145.18;100.00;46873.31;4990313;28;20501;-73
2024/01/24 06:24:23;;;;;;;42.90;5.57;;;;;;;-145.18;100.00;46863.53;4973611;28;20026;-73
2024/01/24 06:26:48;;;;;;;41.07;6.23;;;;;;;-145.18;100.00;46865.50;4990041;28;20130;-73
2024/01/24 06:29:14;;;;;;;49.57;7.73;;;;;;;-145.18;100.00;46857.69;4987989;28;20486;-74
2024/01/24 06:31:39;;;;;;;55.70;6.93;;;;;;;-145.18;100.00;46863.53;4987517;28;20054;-73
2024/01/24 06:34:06;;;;;;;44.03;6.43;;;;;;;-145.18;100.00;46853.78;4987489;28;20066;-73
2024/01/24 06:36:31;;;;;;;47.20;7.53;;;;;;;-145.18;100.00;46861.59;4989609;28;20066;-73
2024/01/24 06:38:56;;;;;;;49.93;6.87;;;;;;;-145.18;100.00;46861.59;4972509;28;20068;-72
2024/01/24 06:41:22;;;;;;;42.63;6.43;;;;;;;-145.18;100.00;46855.72;4990076;28;20034;-73
2024/01/24 06:43:47;;;;;;;51.47;8.00;;;;;;;-145.18;100.00;46861.59;4991431;28;20088;-74
2024/01/24 06:46:12;;;;;;;51.13;7.87;;;;;;;-145.18;100.00;46857.69;4991963;28;20038;-72
2024/01/24 06:48:38;;;;;;;58.27;6.93;;;;;;;-145.18;100.00;46857.69;4991880;28;20518;-73
2024/01/24 06:51:04;;;;;;;47.37;7.40;;;;;;;-145.18;100.00;46857.69;4974516;28;20034;-73
2024/01/24 06:53:30;;;;;;;47.23;7.53;;;;;;;-145.18;100.00;46847.91;4973634;28;20328;-73
2024/01/24 06:55:56;;;;;;;55.87;6.80;;;;;;;-145.18;100.00;46847.91;4990333;28;20065;-72
2024/01/24 06:58:21;;;;;;;49.47;7.27;;;;;;;-145.18;100.00;46847.91;4990928;28;20478;-72
2024/01/24 07:00:47;;;;;;;47.10;7.37;;;;;;;-145.18;100.00;46845.97;4991328;28;20038;-72
2024/01/24 07:03:15;;;;;;;50.03;7.53;;;;;;;-145.18;100.00;46844.00;4991438;28;20034;-72
2024/01/24 07:05:42;;;;;;;55.30;6.97;;;;;;;-145.18;100.00;46842.06;4991494;28;20384;-73
2024/01/24 07:08:08;;;;;;;60.37;6.77;;;;;;;-145.18;100.00;46836.19;4991714;28;20030;-72
2024/01/24 07:10:33;;;;;;;50.17;7.73;;;;;;;-145.18;100.00;46838.16;4991779;28;20348;-72
2024/01/24 07:12:58;;;;;;;33.67;6.77;;;;;;;-145.18;100.00;46838.16;4974340;28;20498;-71
2024/01/24 07:15:24;;;;;;;47.37;6.73;;;;;;;-145.18;100.00;46836.19;4973888;28;20041;-72
2024/01/24 07:17:50;;;;;;;47.70;5.90;;;;;;;-145.18;100.00;46836.19;4991659;28;20450;-72
2024/01/24 07:20:18;;;;;;;48.73;7.07;;;;;;;-145.18;100.00;46836.19;4992063;28;20065;-72
2024/01/24 07:22:43;;;;;;;57.23;8.63;;;;;;;-145.18;100.00;46834.25;4991965;28;20031;-72
2024/01/24 07:25:08;;;;;;;60.10;7.53;;;;;;;-145.18;100.00;46830.34;4977812;28;20034;-72
2024/01/24 07:27:35;;;;;;;36.40;5.43;;;;;;;-145.18;100.00;46838.16;4994882;28;20426;-72
2024/01/24 07:30:04;;;;;;;51.73;6.30;;;;;;;-145.18;100.00;46830.34;4994397;28;20066;-72
2024/01/24 07:32:30;;;;;;;45.60;6.33;;;;;;;-145.18;100.00;46828.38;4994722;28;20058;-72
2024/01/24 07:34:55;;;;;;;56.53;8.20;;;;;;;-145.18;100.00;46830.34;4995128;28;20034;-72
2024/01/24 07:37:21;;;;;;;65.17;8.83;;;;;;;-145.18;100.00;46824.47;4994745;28;20474;-72
2024/01/24 07:39:46;;;;;;;50.77;8.43;;;;;;;-145.18;100.00;46828.38;4994727;28;20038;-72
2024/01/24 07:42:12;;;;;;;53.23;7.20;;;;;;;-145.18;100.00;46826.44;4993283;28;20113;-72
2024/01/24 07:44:37;;;;;;;40.20;6.87;;;;;;;-145.18;100.00;46820.56;4994817;28;20030;-72
2024/01/24 07:47:04;;;;;;;43.50;6.33;;;;;;;-145.18;100.00;46820.56;4994806;28;20097;-72
2024/01/24 07:49:29;;;;;;;52.33;9.13;;;;;;;-145.18;100.00;46818.63;4993601;28;20062;-72
2024/01/24 07:51:55;;;;;;;44.77;6.70;;;;;;;-145.18;100.00;46820.56;4994800;28;20322;-71
2024/01/24 07:54:20;;;;;;;46.77;7.53;;;;;;;-145.18;100.00;46814.72;4994310;28;20443;-71
2024/01/24 07:56:46;;;;;;;57.43;7.57;;;;;;;-145.18;100.00;46812.75;4994682;28;20050;-72
2024/01/24 07:59:15;;;;;;;46.17;6.80;;;;;;;-145.18;100.00;46808.84;4976899;28;20122;-72
2024/01/24 08:01:44;;;;;;;48.80;7.00;;;;;;;-145.18;100.00;46801.03;4969545;28;20100;-71
2024/01/24 08:04:10;;;;;;;61.93;7.07;;;;;;;-145.18;100.00;46799.09;4994646;28;20022;-72
2024/01/24 08:06:35;;;;;;;44.97;6.10;;;;;;;-145.18;100.00;46803.00;4994318;28;20062;-71
2024/01/24 08:09:00;;;;;;;46.90;6.27;;;;;;;-145.18;100.00;46797.13;4994497;28;20178;-71
2024/01/24 08:11:26;;;;;;;54.43;7.17;;;;;;;-145.18;100.00;46801.03;4994465;28;20051;-71
2024/01/24 08:13:51;;;;;;;42.73;7.10;;;;;;;-145.18;100.00;46799.09;4992821;28;20038;-72
2024/01/24 08:16:18;;;;;;;44.87;6.30;;;;;;;-145.18;100.00;46801.03;4993064;28;20514;-72
2024/01/24 08:18:44;;;;;;;45.10;7.63;;;;;;;-145.18;100.00;46801.03;4993786;28;20026;-72
2024/01/24 08:21:09;;;;;;;42.43;6.23;;;;;;;-145.18;100.00;46801.03;4994287;28;20085;-72
2024/01/24 08:23:35;;;;;;;46.13;6.70;;;;;;;-145.18;100.00;46804.94;4976218;28;20044;-72
2024/01/24 08:26:01;;;;;;;60.93;8.77;;;;;;;-145.18;100.00;46804.94;4994194;28;20061;-72
2024/01/24 08:28:26;;;;;;;44.50;7.63;;;;;;;-145.18;100.00;46803.00;4994020;28;20026;-72
2024/01/24 08:30:51;;;;;;;49.90;7.93;;;;;;;-145.18;100.00;46804.94;4993761;28;20481;-72
2024/01/24 08:33:17;;;;;;;49.60;8.10;;;;;;;-145.18;100.00;46804.94;4993774;28;20042;-71
2024/01/24 08:35:42;;;;;;;46.47;6.47;;;;;;;-145.18;100.00;46803.00;4993705;28;20479;-71
2024/01/24 08:38:09;;;;;;;46.30;7.30;;;;;;;-145.18;100.00;46804.94;4975861;28;20034;-72
2024/01/24 08:40:35;;;;;;;39.50;5.93;;;;;;;-145.18;100.00;46801.03;4982104;28;20026;-67
2024/01/24 08:43:00;;;;;;;43.90;7.00;;;;;;;-145.18;100.00;46799.09;4993623;28;20481;-67
2024/01/24 08:45:26;;;;;;;32.90;6.00;;;;;;;-145.18;100.00;46801.03;4976513;28;20088;-67
2024/01/24 08:47:51;;;;;;;40.97;7.43;;;;;;;-145.18;100.00;46797.13;4993951;28;20049;-67
2024/01/24 08:50:17;;;;;;;43.67;6.57;;;;;;;-145.18;100.00;46799.09;4993640;28;20115;-67
2024/01/24 08:52:42;;;;;;;40.70;7.07;;;;;;;-145.18;100.00;46797.13;4993735;28;20540;-67
2024/01/24 08:55:08;;;;;;;57.17;8.00;;;;;;;-145.18;100.00;46797.13;4975865;28;20495;-67
2024/01/24 08:57:33;;;;;;;35.17;6.23;;;;;;;-145.18;100.00;46799.09;4993343;28;20034;-67
2024/01/24 08:59:59;;;;;;;45.83;8.07;;;;;;;-145.18;100.00;46795.19;4993502;28;20034;-67
2024/01/24 09:02:25;;;;;;;44.80;6.93;;;;;;;-145.18;100.00;46795.19;4993421;28;20485;-67
2024/01/24 09:04:52;;;;;;;57.07;7.93;;;;;;;-145.18;100.00;46801.03;4993085;28;20030;-67
2024/01/24 09:07:21;;;;;;;44.17;7.60;;;;;;;-145.18;100.00;46801.03;4993552;28;20743;-67
2024/01/24 09:09:50;;;;;;;55.20;6.80;;;;;;;-145.18;100.00;46804.94;4975990;28;20034;-67
2024/01/24 09:12:16;;;;;;;51.97;8.87;;;;;;;-145.18;100.00;46803.00;4997935;28;20269;-67
2024/01/24 09:14:41;;;;;;;45.50;6.10;;;;;;;-145.18;100.00;46801.03;4993117;28;20037;-67
2024/01/24 09:17:09;;;;;;;54.57;7.43;;;;;;;-145.18;100.00;46804.94;4975316;28;20050;-67
2024/01/24 09:19:35;;;;;;;55.30;7.60;;;;;;;-145.18;100.00;46801.03;4992573;28;20077;-67
2024/01/24 09:22:01;;;;;;;43.80;6.67;;;;;;;-145.18;100.00;46803.00;4992675;28;20525;-67
2024/01/24 09:24:26;;;;;;;44.83;7.57;;;;;;;-145.18;100.00;46804.94;4993179;28;20031;-68
2024/01/24 09:26:52;;;;;;;66.33;8.13;;;;;;;-145.18;100.00;46801.03;4986337;28;20219;-67
2024/01/24 09:29:18;;;;;;;54.37;7.93;;;;;;;-145.18;100.00;46803.00;4993209;28;20037;-67
2024/01/24 09:31:45;;;;;;;50.70;7.90;;;;;;;-145.18;100.00;46801.03;4986424;28;20046;-67
2024/01/24 09:34:15;;;;;;;61.60;7.60;;;;;;;-145.18;100.00;46803.00;4993193;28;20103;-67
2024/01/24 09:36:41;;;;;;;55.30;10.10;;;;;;;-145.18;100.00;46803.00;4975011;28;20282;-67
2024/01/24 09:39:09;;;;;;;39.93;6.43;;;;;;;-145.18;100.00;46806.91;4992784;28;20034;-67
2024/01/24 09:41:44;;;;;;;59.13;8.13;;;;;;;-145.18;100.00;46804.94;4992365;28;20038;-67
2024/01/24 09:44:11;;;;;;;47.70;6.63;;;;;;;-145.18;100.00;46799.09;4992674;28;20034;-67
2024/01/24 09:46:39;;;;;;;43.30;5.17;;;;;;;-145.18;100.00;46801.03;4974715;28;20056;-67
2024/01/24 09:49:06;;;;;;;38.57;6.23;;;;;;;-145.18;100.00;46799.09;4992802;28;20398;-67
2024/01/24 09:51:36;;;;;;;31.93;6.60;;;;;;;-145.18;100.00;46801.03;4991973;28;20069;-71
2024/01/24 09:54:06;;;;;;;39.13;5.97;;;;;;;-145.18;100.00;46793.22;4992523;28;20030;-71
2024/01/24 09:56:36;;;;;;;53.17;9.10;;;;;;;-145.18;100.00;46789.31;4992480;28;20041;-71
2024/01/24 09:59:07;;;;;;;44.13;6.43;;;;;;;-145.18;100.00;46785.41;4992541;28;20030;-72
2024/01/24 10:01:37;;;;;;;41.67;6.20;;;;;;;-145.18;100.00;46785.41;4992431;28;20022;-71
2024/01/24 10:04:03;;;;;;;44.73;6.90;;;;;;;-145.18;100.00;46783.47;4992258;28;20033;-71
2024/01/24 10:06:29;;;;;;;42.40;6.13;;;;;;;-145.18;100.00;46779.56;4992513;28;20027;-72
2024/01/24 10:08:58;;;;;;;47.10;7.43;;;;;;;-145.18;100.00;46775.66;4992532;28;20402;-72
2024/01/24 10:11:27;;;;;;;38.00;5.97;;;;;;;-145.18;100.00;46777.59;4992531;28;20037;-71
2024/01/24 10:13:57;;;;;;;49.70;7.27;;;;;;;-145.18;100.00;46769.78;4992734;28;20045;-71
2024/01/24 10:16:23;;;;;;;38.93;6.63;;;;;;;-145.18;100.00;46773.69;4992287;28;20030;-72
2024/01/24 10:18:49;;;;;;;40.13;8.63;;;;;;;-145.18;100.00;46773.69;4992215;28;20108;-71
2024/01/24 10:21:14;;;;;;;46.97;7.53;;;;;;;-145.18;100.00;46765.88;4992114;28;20117;-72
2024/01/24 10:23:41;;;;;;;60.97;7.67;;;;;;;-145.18;100.00;46769.78;4992029;28;20049;-71
2024/01/24 10:26:08;;;;;;;53.90;6.43;;;;;;;-145.18;100.00;46767.84;4991836;28;20163;-71
2024/01/24 10:28:33;;;;;;;47.33;6.70;;;;;;;-145.18;100.00;46767.84;4991956;28;20042;-71
2024/01/24 10:31:01;;;;;;;52.53;7.07;;;;;;;-145.18;100.00;46769.78;4989488;28;20058;-72
2024/01/24 10:33:26;;;;;;;47.90;5.87;;;;;;;-145.18;100.00;46773.69;4992124;28;20085;-71
2024/01/24 10:35:51;;;;;;;58.60;8.20;;;;;;;-145.18;100.00;46775.66;4992209;28;20668;-71
2024/01/24 10:38:22;;;;;;;44.90;6.27;;;;;;;-145.18;100.00;46773.69;4992164;28;20045;-71
2024/01/24 10:40:51;;;;;;;44.30;6.63;;;;;;;-145.18;100.00;46769.78;4974622;28;20042;-71
2024/01/24 10:43:19;;;;;;;48.23;5.97;;;;;;;-145.18;100.00;46763.91;4992227;28;20027;-71
2024/01/24 10:45:45;;;;;;;36.73;6.73;;;;;;;-145.18;100.00;46769.78;4992330;28;20026;-72
2024/01/24 10:48:11;;;;;;;44.43;6.63;;;;;;;-145.18;100.00;46767.84;4988525;28;20501;-72
2024/01/24 10:50:37;;;;;;;39.03;5.73;;;;;;;-145.18;100.00;46763.91;4992230;28;20027;-71
2024/01/24 10:53:03;;;;;;;46.73;5.77;;;;;;;-145.18;100.00;46763.91;4992083;28;20030;-71
2024/01/24 10:55:31;;;;;;;42.30;5.43;;;;;;;-145.18;100.00;46765.88;4992092;28;20057;-71
2024/01/24 10:57:57;;;;;;;34.47;6.17;;;;;;;-145.18;100.00;46767.84;4991907;28;20038;-71